Hermanos Serdan International Airport
MMPB : now visible

Airfield :











YOU CAN JOIN US ON...

 
LOGIN :

Register | Disclaimer

   EN    FR    IT 

 









Legend :    VFR   Marginal VFR   IFR   Intensive IFR   Very Intensive IFR
Visi :
Ceiling :
>= 8 km
>= 3000ft
5 to 8 km
1000 to 3000 ft
1500m to 5 km
500 to 1000 ft
800 to 1500m
200 to 500 ft
< 800m
< 200 ft
Symbols :   Thunderstorms  Fog  Heavy snow  Heavy precipitations  Wind > 20 kt






- Airport Elevation : 7361 ft
- IATA code : PBC


MMPB - Hermanos Serdan International

CURRENT METAR :
  • 101540Z 03005KT 7SM FEW220 15/07 A3037 RMK 8/002 HZY

EXPIRED METARs :
  • 101447Z 35005KT 7SM SCT220 11/05 A3036 RMK 8/002 HZY
  • 101344Z 34006KT 7SM SKC 06/02 A3034 RMK HZY

TAF TAF MMPB
Valid from the 10 at 06:00 until the 11 at 06:00 UTC


100504Z 1006/1106 27005KT P6SM SKC
FM101800 34010KT P6SM SCT030 SCT250
FM110500 34006KT P6SM SCT030



MET'MAP, your aeronautical weather chart ! - Copyright ORBIFLY December 2007 - Disclaimer

ORBIFLY MET'MAP TEAM :

Programming & Development : Alexandra Zaïnal
Concept & original design : Baudouin d'Aumeries
Assistance for programming : Marc-Olivier Méhu
Technical & hardware support : Manuel Goepfert

Contact : metmap@orbifly.com




SOURCES & CREDITS :

   NOAA       Earth
Advisory